Time;durP1;ratioP1;P1;durP2;ratioP2;P2;SDS_P1;SDS_P2;PMS_P1;PMS_P2;Temp;Humidity;BMP_temperature;BMP_pressure;BME280_temperature;BME280_humidity;BME280_pressure;Samples;Min_cycle;Max_cycle;Signal;HPM_P1;HPM_P2
2022/02/18 00:00:54;;;;;;;21.45;2.65;;;;;;;10.30;62.11;101123.59;4749693;29;20066;-54
2022/02/18 00:03:20;;;;;;;14.45;2.72;;;;;;;10.30;62.22;101119.25;4754837;29;20529;-55
2022/02/18 00:05:46;;;;;;;12.98;2.55;;;;;;;10.27;62.46;101111.38;4755939;29;20058;-56
2022/02/18 00:08:12;;;;;;;14.55;2.45;;;;;;;10.25;62.60;101107.84;4744852;29;20047;-53
2022/02/18 00:10:37;;;;;;;13.77;2.83;;;;;;;10.19;63.06;101105.13;4758560;29;20051;-54
2022/02/18 00:13:02;;;;;;;15.15;2.38;;;;;;;10.17;62.79;101099.03;4746222;29;20384;-54
2022/02/18 00:15:28;;;;;;;12.70;2.20;;;;;;;10.15;63.10;101096.34;4756683;29;20061;-54
2022/02/18 00:17:54;;;;;;;18.58;2.35;;;;;;;10.20;62.66;101090.38;4750483;29;20405;-55
2022/02/18 00:20:20;;;;;;;14.27;2.33;;;;;;;10.14;63.43;101091.09;4753353;29;20540;-52
2022/02/18 00:22:45;;;;;;;16.80;2.78;;;;;;;10.22;62.95;101094.78;4755942;29;20075;-54
2022/02/18 00:25:11;;;;;;;17.27;2.38;;;;;;;10.25;62.69;101084.41;4742480;29;20062;-54
2022/02/18 00:27:40;;;;;;;16.05;2.65;;;;;;;10.30;62.45;101088.00;4757053;29;20058;-54
2022/02/18 00:30:08;;;;;;;17.33;2.15;;;;;;;10.24;63.01;101081.78;4764952;29;20062;-54
2022/02/18 00:32:33;;;;;;;14.18;2.20;;;;;;;10.23;62.59;101085.25;4736203;29;20248;-54
2022/02/18 00:35:00;;;;;;;17.80;2.47;;;;;;;10.17;62.86;101072.97;4751084;29;20043;-54
2022/02/18 00:37:25;;;;;;;13.40;2.28;;;;;;;10.22;63.03;101071.31;4769608;29;20055;-52
2022/02/18 00:39:51;;;;;;;12.27;2.38;;;;;;;10.28;62.38;101080.97;4756040;29;20505;-54
2022/02/18 00:42:18;;;;;;;13.88;2.85;;;;;;;10.25;62.58;101078.31;4769459;29;20527;-54
2022/02/18 00:44:44;;;;;;;20.92;2.33;;;;;;;10.28;62.89;101073.16;4746749;29;20100;-54
2022/02/18 00:47:10;;;;;;;13.75;2.15;;;;;;;10.32;62.50;101081.06;4741236;29;20477;-54
2022/02/18 00:49:37;;;;;;;16.08;2.63;;;;;;;10.38;62.40;101085.50;4752721;29;20058;-54
2022/02/18 00:52:03;;;;;;;21.55;2.58;;;;;;;10.42;62.10;101069.97;4750676;29;20047;-56
2022/02/18 00:54:28;;;;;;;15.82;2.60;;;;;;;10.42;62.18;101067.34;4749723;29;20047;-54
2022/02/18 00:56:54;;;;;;;16.60;2.35;;;;;;;10.40;62.62;101062.94;4748746;29;20116;-53
2022/02/18 00:59:20;;;;;;;16.48;2.40;;;;;;;10.39;62.23;101063.78;4753760;29;20489;-56
2022/02/18 01:01:45;;;;;;;19.58;2.35;;;;;;;10.42;62.27;101064.75;4748852;29;20050;-54
2022/02/18 01:04:11;;;;;;;18.25;2.35;;;;;;;10.43;62.31;101052.59;4750942;29;20232;-52
2022/02/18 01:06:36;;;;;;;15.40;2.25;;;;;;;10.49;61.72;101047.47;4767877;29;20801;-53
2022/02/18 01:09:02;;;;;;;18.35;2.72;;;;;;;10.43;62.42;101047.38;4746690;29;20297;-55
2022/02/18 01:11:28;;;;;;;19.48;2.75;;;;;;;10.46;62.00;101056.13;4756260;29;20128;-52
2022/02/18 01:13:53;;;;;;;15.50;2.40;;;;;;;10.46;62.26;101050.91;4751006;29;20059;-53
2022/02/18 01:16:19;;;;;;;17.50;2.53;;;;;;;10.52;61.92;101044.91;4755206;29;20048;-54
2022/02/18 01:18:44;;;;;;;18.35;2.40;;;;;;;10.55;61.97;101040.59;4752001;29;20588;-52
2022/02/18 01:21:10;;;;;;;19.90;2.78;;;;;;;10.53;61.97;101049.28;4753600;29;20526;-54
2022/02/18 01:23:35;;;;;;;16.77;2.30;;;;;;;10.51;62.27;101040.53;4750678;29;20112;-53
2022/02/18 01:26:02;;;;;;;17.77;2.85;;;;;;;10.48;62.59;101037.91;4746430;29;20055;-53
2022/02/18 01:28:28;;;;;;;16.50;2.58;;;;;;;10.50;61.99;101031.84;4768068;29;20124;-55
2022/02/18 01:30:54;;;;;;;21.08;2.78;;;;;;;10.51;62.31;101022.28;4741634;29;20392;-54
2022/02/18 01:33:19;;;;;;;17.85;2.40;;;;;;;10.52;61.97;101018.84;4755357;29;20051;-51
2022/02/18 01:35:45;;;;;;;18.63;2.40;;;;;;;10.51;62.49;101023.19;4754507;29;21959;-55
2022/02/18 01:38:11;;;;;;;16.85;2.85;;;;;;;10.48;62.59;101020.53;4749182;29;20864;-55
2022/02/18 01:40:36;;;;;;;22.83;3.15;;;;;;;10.47;62.76;101010.97;4757781;29;20619;-57
2022/02/18 01:43:02;;;;;;;15.50;3.03;;;;;;;10.50;62.80;101003.16;4747787;29;20803;-55
2022/02/18 01:45:28;;;;;;;21.55;2.90;;;;;;;10.52;63.21;100993.66;4752843;29;20083;-54
2022/02/18 01:47:53;;;;;;;21.75;2.92;;;;;;;10.53;62.74;100989.31;4756011;29;20111;-54
2022/02/18 01:50:19;;;;;;;24.65;3.17;;;;;;;10.52;62.86;100988.44;4757201;29;20079;-56
2022/02/18 01:52:50;;;;;;;24.10;3.53;;;;;;;10.50;63.35;100973.63;4735753;29;20039;-53
2022/02/18 01:55:18;;;;;;;20.58;2.80;;;;;;;10.49;63.73;100964.06;4751614;29;20047;-54
2022/02/18 01:57:52;;;;;;;19.23;2.72;;;;;;;10.51;63.36;100955.41;4753574;29;20047;-55
2022/02/18 02:00:20;;;;;;;25.02;3.10;;;;;;;10.58;63.79;100951.16;4765448;29;20559;-52
2022/02/18 02:02:48;;;;;;;24.65;3.10;;;;;;;10.53;64.17;100930.25;4758985;29;20130;-55
2022/02/18 02:05:14;;;;;;;23.08;3.30;;;;;;;10.50;64.50;100922.38;4750976;29;20069;-54
2022/02/18 02:07:42;;;;;;;26.00;3.83;;;;;;;10.52;64.51;100928.50;4763296;29;20056;-55
2022/02/18 02:10:09;;;;;;;25.23;3.33;;;;;;;10.50;64.82;100931.91;4744903;29;20070;-54
2022/02/18 02:12:50;;;;;;;26.38;3.35;;;;;;;10.55;64.63;100918.09;4743261;29;20698;-56
2022/02/18 02:15:17;;;;;;;25.02;3.42;;;;;;;10.54;64.85;100921.56;4754716;29;20065;-56
2022/02/18 02:17:43;;;;;;;28.75;3.72;;;;;;;10.48;65.33;100905.84;4745962;29;20190;-54
2022/02/18 02:20:10;;;;;;;20.95;3.53;;;;;;;10.47;65.22;100901.47;4749230;29;20065;-55
2022/02/18 02:22:36;;;;;;;28.83;3.30;;;;;;;10.49;65.48;100898.91;4753543;29;20051;-55
2022/02/18 02:25:01;;;;;;;31.67;3.88;;;;;;;10.47;65.74;100884.97;4730824;29;20396;-55
2022/02/18 02:27:29;;;;;;;24.60;3.50;;;;;;;10.47;65.48;100884.97;4755929;29;20043;-54
2022/02/18 02:29:54;;;;;;;27.33;3.53;;;;;;;10.41;65.72;100877.06;4755655;29;20075;-54
2022/02/18 02:32:19;;;;;;;29.08;3.05;;;;;;;10.43;66.02;100865.78;4752893;29;20575;-54
2022/02/18 02:34:45;;;;;;;25.15;3.58;;;;;;;10.42;66.14;100863.19;4748799;29;20403;-55
2022/02/18 02:37:10;;;;;;;24.30;3.70;;;;;;;10.42;66.27;100856.25;4764075;29;20085;-53
2022/02/18 02:39:37;;;;;;;28.58;3.80;;;;;;;10.44;65.91;100843.22;4750980;29;20054;-55
2022/02/18 02:42:05;;;;;;;26.70;3.83;;;;;;;10.50;66.18;100840.69;4765589;29;20047;-53
2022/02/18 02:44:31;;;;;;;28.52;3.90;;;;;;;10.45;66.43;100839.75;4752858;29;20077;-51
2022/02/18 02:46:56;;;;;;;30.70;3.42;;;;;;;10.43;66.54;100839.72;4753505;29;20071;-55
2022/02/18 02:49:22;;;;;;;29.33;4.07;;;;;;;10.45;66.94;100838.03;4758542;29;20061;-54
2022/02/18 02:51:48;;;;;;;35.25;3.85;;;;;;;10.45;66.84;100832.81;4754975;29;20582;-55
2022/02/18 02:54:14;;;;;;;31.63;3.85;;;;;;;10.48;67.03;100821.56;4756125;29;20550;-53
2022/02/18 02:56:39;;;;;;;26.98;4.35;;;;;;;10.52;66.74;100813.78;4760246;29;20415;-57
2022/02/18 02:59:05;;;;;;;29.30;3.95;;;;;;;10.48;67.54;100801.59;4751673;29;20625;-54
2022/02/18 03:01:30;;;;;;;27.35;4.35;;;;;;;10.49;67.05;100797.25;4759627;29;20487;-54
2022/02/18 03:03:56;;;;;;;27.48;4.13;;;;;;;10.49;67.03;100784.22;4756085;29;20058;-54
2022/02/18 03:06:21;;;;;;;35.25;4.60;;;;;;;10.49;67.11;100782.47;4770083;29;20075;-54
2022/02/18 03:08:47;;;;;;;30.65;4.30;;;;;;;10.45;67.31;100778.06;4751928;29;20457;-54
2022/02/18 03:11:15;;;;;;;28.77;4.10;;;;;;;10.41;67.47;100760.66;4755031;29;20546;-54
2022/02/18 03:13:42;;;;;;;38.53;4.80;;;;;;;10.39;67.55;100771.91;4763887;29;20695;-54
2022/02/18 03:16:07;;;;;;;36.47;4.68;;;;;;;10.33;68.12;100751.00;4770585;29;20120;-53
2022/02/18 03:18:47;;;;;;;32.78;5.30;;;;;;;10.31;68.59;100752.69;4752202;29;20041;-53
2022/02/18 03:21:14;;;;;;;33.35;4.72;;;;;;;10.36;68.24;100751.03;4768989;29;20055;-55
2022/02/18 03:23:39;;;;;;;35.13;5.35;;;;;;;10.32;68.62;100737.09;4749696;29;20043;-57
2022/02/18 03:26:07;;;;;;;39.72;5.55;;;;;;;10.31;68.64;100722.28;4755671;29;20522;-54
2022/02/18 03:28:32;;;;;;;28.88;4.88;;;;;;;10.27;68.62;100710.09;4772515;29;20043;-55
2022/02/18 03:30:59;;;;;;;30.17;4.90;;;;;;;10.34;68.57;100700.63;4743852;29;20565;-55
2022/02/18 03:33:25;;;;;;;34.45;4.97;;;;;;;10.28;68.98;100687.53;4750808;29;20466;-56
2022/02/18 03:35:50;;;;;;;27.88;4.85;;;;;;;10.30;68.90;100673.69;4770575;29;20097;-56
2022/02/18 03:38:16;;;;;;;34.33;5.15;;;;;;;10.28;68.84;100658.88;4756230;29;20705;-53
2022/02/18 03:40:42;;;;;;;32.88;4.93;;;;;;;10.20;69.29;100647.47;4769735;29;20057;-56
2022/02/18 03:43:08;;;;;;;28.17;4.75;;;;;;;10.20;69.73;100632.72;4753922;29;21202;-54
2022/02/18 03:45:33;;;;;;;34.33;4.70;;;;;;;10.24;69.64;100620.63;4756848;29;20059;-54
2022/02/18 03:47:59;;;;;;;31.67;5.63;;;;;;;10.30;69.33;100598.13;4771270;29;20050;-54
2022/02/18 03:50:24;;;;;;;34.00;4.85;;;;;;;10.27;69.70;100584.16;4756658;29;20070;-55
2022/02/18 03:52:53;;;;;;;38.22;4.38;;;;;;;10.17;69.71;100570.19;4744711;29;20051;-55
2022/02/18 03:55:19;;;;;;;34.47;4.80;;;;;;;10.31;69.39;100572.91;4754918;29;20039;-55
2022/02/18 03:57:44;;;;;;;35.50;4.70;;;;;;;10.23;69.54;100569.38;4754210;29;20140;-53
2022/02/18 04:00:11;;;;;;;33.40;4.38;;;;;;;10.30;69.24;100550.34;4755707;29;20051;-54
2022/02/18 04:02:37;;;;;;;27.95;4.53;;;;;;;10.29;69.32;100549.47;4770362;29;20313;-55
2022/02/18 04:05:02;;;;;;;32.10;4.25;;;;;;;10.24;69.92;100553.75;4746237;29;20074;-57
2022/02/18 04:07:28;;;;;;;33.90;4.22;;;;;;;10.30;69.99;100558.16;4754741;29;20123;-54
2022/02/18 04:09:53;;;;;;;32.55;3.78;;;;;;;10.29;69.53;100552.06;4753920;29;20520;-51
2022/02/18 04:12:19;;;;;;;35.25;4.75;;;;;;;10.30;69.92;100539.91;4753983;29;20182;-54
2022/02/18 04:14:44;;;;;;;35.08;4.93;;;;;;;10.35;69.38;100544.31;4749512;29;20429;-54
2022/02/18 04:17:09;;;;;;;35.47;4.53;;;;;;;10.33;69.30;100550.34;4747035;29;20056;-54
2022/02/18 04:19:35;;;;;;;30.55;4.28;;;;;;;10.27;69.80;100565.94;4757018;29;20135;-54
2022/02/18 04:22:02;;;;;;;31.80;4.13;;;;;;;10.37;69.17;100547.78;4759181;29;20043;-54
2022/02/18 04:24:28;;;;;;;33.42;4.80;;;;;;;10.33;69.48;100530.38;4758846;29;20288;-53
2022/02/18 04:26:54;;;;;;;28.98;4.07;;;;;;;10.30;69.49;100532.09;4742487;29;20058;-53
2022/02/18 04:29:19;;;;;;;38.88;4.53;;;;;;;10.38;69.68;100533.91;4756886;29;20051;-51
2022/02/18 04:31:44;;;;;;;33.85;5.18;;;;;;;10.38;69.77;100525.19;4748658;29;20602;-53
2022/02/18 04:34:10;;;;;;;32.08;4.72;;;;;;;10.39;69.38;100506.97;4757058;29;20359;-52
2022/02/18 04:36:35;;;;;;;28.15;4.38;;;;;;;10.38;69.18;100501.75;4752771;29;20058;-53
2022/02/18 04:39:00;;;;;;;33.50;4.40;;;;;;;10.36;69.50;100496.56;4759906;29;20103;-53
2022/02/18 04:41:26;;;;;;;34.70;5.15;;;;;;;10.41;69.57;100492.25;4764577;29;20527;-54
2022/02/18 04:43:51;;;;;;;36.47;5.07;;;;;;;10.41;68.85;100479.22;4757150;29;20166;-50
2022/02/18 04:46:17;;;;;;;28.50;4.22;;;;;;;10.42;68.97;100462.72;4752447;29;20044;-53
2022/02/18 04:48:43;;;;;;;36.58;5.03;;;;;;;10.46;68.82;100440.16;4751746;29;20062;-58
2022/02/18 04:51:08;;;;;;;31.75;4.65;;;;;;;10.36;68.83;100434.00;4766259;29;22039;-53
2022/02/18 04:53:37;;;;;;;35.63;5.07;;;;;;;10.39;68.71;100430.53;4753447;29;20442;-50
2022/02/18 04:56:04;;;;;;;33.35;4.28;;;;;;;10.39;68.71;100407.09;4752859;29;20135;-51
2022/02/18 04:58:30;;;;;;;25.10;4.40;;;;;;;10.40;68.48;100403.63;4737600;29;20851;-51
2022/02/18 05:00:55;;;;;;;34.05;4.60;;;;;;;10.45;68.61;100405.41;4742719;29;20089;-54
2022/02/18 05:03:28;;;;;;;34.88;5.57;;;;;;;10.43;68.45;100414.94;4751790;29;20052;-53
2022/02/18 05:05:53;;;;;;;35.25;5.60;;;;;;;10.48;68.59;100405.44;4753175;29;20051;-54
2022/02/18 05:08:19;;;;;;;32.72;4.85;;;;;;;10.50;68.39;100395.00;4755774;29;20116;-52
2022/02/18 05:10:44;;;;;;;30.58;4.68;;;;;;;10.49;68.59;100383.69;4755016;29;20051;-53
2022/02/18 05:13:09;;;;;;;25.52;4.25;;;;;;;10.33;69.11;100373.16;4746863;29;20043;-55
2022/02/18 05:15:35;;;;;;;32.35;4.93;;;;;;;10.42;68.36;100355.88;4748550;29;20605;-54
2022/02/18 05:18:02;;;;;;;27.30;3.90;;;;;;;10.42;68.74;100345.44;4751694;29;21033;-53
2022/02/18 05:20:27;;;;;;;36.28;5.18;;;;;;;10.44;68.41;100332.41;4756082;29;20051;-51
2022/02/18 05:23:00;;;;;;;37.80;4.90;;;;;;;10.45;68.56;100315.91;4745095;29;20551;-55
2022/02/18 05:25:26;;;;;;;36.00;4.60;;;;;;;10.46;68.74;100312.44;4755914;29;20074;-53
2022/02/18 05:27:52;;;;;;;27.70;4.30;;;;;;;10.50;68.54;100303.78;4746066;29;20129;-51
2022/02/18 05:30:19;;;;;;;28.05;4.78;;;;;;;10.27;68.80;100308.88;4752656;29;20056;-54
2022/02/18 05:32:44;;;;;;;31.85;4.70;;;;;;;10.37;68.60;100291.56;4748413;29;20065;-53
2022/02/18 05:35:09;;;;;;;29.55;3.90;;;;;;;10.53;67.79;100282.94;4754165;29;20087;-54
2022/02/18 05:37:35;;;;;;;29.92;4.03;;;;;;;10.42;67.97;100271.63;4747592;29;20053;-53
2022/02/18 05:40:00;;;;;;;29.30;4.32;;;;;;;10.34;68.19;100261.16;4746457;29;20471;-54
2022/02/18 05:42:26;;;;;;;25.30;3.58;;;;;;;10.33;67.89;100248.97;4751313;29;20103;-52
2022/02/18 05:44:51;;;;;;;25.52;3.70;;;;;;;10.51;67.50;100236.03;4745804;29;20087;-54
2022/02/18 05:47:16;;;;;;;24.35;3.83;;;;;;;10.50;67.17;100228.19;4749732;29;20334;-52
2022/02/18 05:49:42;;;;;;;36.00;4.10;;;;;;;10.50;66.99;100218.63;4747521;29;20043;-54
2022/02/18 05:52:07;;;;;;;24.40;4.38;;;;;;;10.55;66.12;100203.03;4753684;29;20138;-53
2022/02/18 05:54:33;;;;;;;22.35;3.17;;;;;;;10.52;66.59;100188.25;4739690;29;20492;-56
2022/02/18 05:56:58;;;;;;;23.45;3.63;;;;;;;10.61;65.84;100182.22;4741725;29;20846;-52
2022/02/18 05:59:24;;;;;;;27.38;3.65;;;;;;;10.55;65.20;100170.00;4753136;29;20078;-51
2022/02/18 06:01:49;;;;;;;27.77;4.43;;;;;;;10.49;65.66;100150.91;4747674;29;20054;-54
2022/02/18 06:04:15;;;;;;;21.65;3.53;;;;;;;10.67;65.26;100127.47;4748494;29;20130;-53
2022/02/18 06:06:42;;;;;;;21.70;3.88;;;;;;;10.41;66.27;100131.75;4749153;29;20146;-54
2022/02/18 06:09:08;;;;;;;22.67;3.72;;;;;;;10.28;66.99;100117.84;4746894;29;20048;-54
2022/02/18 06:11:33;;;;;;;19.15;3.80;;;;;;;10.37;66.77;100110.03;4751390;29;20046;-55
2022/02/18 06:13:59;;;;;;;31.58;4.80;;;;;;;10.46;67.37;100112.66;4754455;29;20397;-54
2022/02/18 06:16:24;;;;;;;25.23;4.05;;;;;;;10.46;67.75;100106.59;4756704;29;20051;-55
2022/02/18 06:18:50;;;;;;;25.45;3.92;;;;;;;10.38;69.11;100103.94;4746839;29;20046;-59
2022/02/18 06:21:15;;;;;;;26.00;4.18;;;;;;;10.37;69.59;100086.56;4755478;29;20133;-52
2022/02/18 06:23:40;;;;;;;26.88;4.50;;;;;;;10.31;70.51;100072.66;4752394;29;20075;-53
2022/02/18 06:26:06;;;;;;;28.15;5.13;;;;;;;10.22;70.62;100065.72;4754305;29;20601;-54
2022/02/18 06:28:33;;;;;;;28.73;5.40;;;;;;;10.14;71.00;100047.44;4753843;29;20064;-57
2022/02/18 06:30:59;;;;;;;25.75;5.70;;;;;;;10.22;70.91;100046.63;4747789;29;20598;-53
2022/02/18 06:33:24;;;;;;;28.65;5.57;;;;;;;10.23;71.06;100025.78;4743767;29;20039;-55
2022/02/18 06:35:50;;;;;;;20.00;5.43;;;;;;;10.22;71.31;100031.84;4751263;29;20043;-53
2022/02/18 06:38:15;;;;;;;25.58;5.53;;;;;;;10.12;71.63;100020.50;4763757;29;20837;-53
2022/02/18 06:40:40;;;;;;;25.58;6.50;;;;;;;10.11;71.92;100018.78;4749850;29;20408;-54
2022/02/18 06:43:06;;;;;;;25.42;7.20;;;;;;;10.22;71.73;100012.75;4746963;29;21958;-54
2022/02/18 06:45:32;;;;;;;29.40;7.90;;;;;;;10.10;72.34;100001.44;4754351;29;20571;-53
2022/02/18 06:47:57;;;;;;;27.88;8.05;;;;;;;10.24;72.70;100000.63;4751188;29;20083;-54
2022/02/18 06:50:23;;;;;;;34.90;9.10;;;;;;;10.22;72.64;99998.00;4752071;29;20421;-51
2022/02/18 06:52:48;;;;;;;29.73;9.15;;;;;;;9.99;73.50;99989.25;4751025;29;20174;-54
2022/02/18 06:55:15;;;;;;;30.05;8.90;;;;;;;10.05;73.51;99986.66;4751843;29;20043;-52
2022/02/18 06:57:45;;;;;;;25.23;9.13;;;;;;;10.18;73.04;99965.00;4758430;29;20043;-51
2022/02/18 07:00:13;;;;;;;29.17;9.13;;;;;;;10.27;73.14;99980.63;4754637;29;20044;-55
2022/02/18 07:02:39;;;;;;;27.60;9.45;;;;;;;10.35;72.90;99965.88;4751801;29;20166;-55
2022/02/18 07:05:06;;;;;;;24.40;8.85;;;;;;;10.23;73.27;99951.97;4740942;29;20631;-51
2022/02/18 07:07:32;;;;;;;25.30;9.52;;;;;;;10.27;73.70;99951.97;4751605;29;20423;-52
2022/02/18 07:09:57;;;;;;;31.23;9.30;;;;;;;10.39;72.86;99940.69;4752533;29;20085;-52
2022/02/18 07:12:25;;;;;;;25.33;9.30;;;;;;;10.33;73.99;99930.25;4750784;29;20389;-54
2022/02/18 07:14:52;;;;;;;35.80;9.90;;;;;;;10.40;73.51;99929.38;4747066;29;20043;-55
2022/02/18 07:17:18;;;;;;;37.25;10.00;;;;;;;10.36;73.87;99912.91;4755016;29;20420;-53
2022/02/18 07:19:44;;;;;;;31.13;9.65;;;;;;;10.45;74.04;99904.19;4753777;29;20095;-54
2022/02/18 07:22:09;;;;;;;24.92;9.43;;;;;;;10.49;74.11;99891.16;4754324;29;20058;-51
2022/02/18 07:24:35;;;;;;;33.70;9.60;;;;;;;10.38;74.73;99882.50;4754188;29;20047;-49
2022/02/18 07:27:01;;;;;;;28.73;10.00;;;;;;;10.43;74.80;99872.09;4747804;29;20894;-52
2022/02/18 07:29:26;;;;;;;26.92;9.63;;;;;;;10.38;74.92;99869.47;4756411;29;20046;-54
2022/02/18 07:31:51;;;;;;;26.38;9.07;;;;;;;10.45;75.33;99850.34;4754310;29;20478;-52
2022/02/18 07:34:17;;;;;;;26.02;9.20;;;;;;;10.51;74.81;99858.16;4755337;29;20568;-56
2022/02/18 07:36:43;;;;;;;23.65;9.32;;;;;;;10.51;75.03;99857.28;4752227;29;20050;-52
2022/02/18 07:39:08;;;;;;;19.38;8.40;;;;;;;10.63;75.18;99845.94;4753278;29;20175;-51
2022/02/18 07:41:33;;;;;;;21.30;8.85;;;;;;;10.75;74.39;99843.28;4747925;29;20215;-52
2022/02/18 07:43:59;;;;;;;24.30;8.55;;;;;;;10.75;74.70;99841.56;4748125;29;20814;-52
2022/02/18 07:46:24;;;;;;;21.30;8.45;;;;;;;10.71;75.16;99836.38;4753725;29;20047;-56
2022/02/18 07:48:50;;;;;;;22.33;8.32;;;;;;;10.61;75.61;99835.53;4748732;29;20055;-53
2022/02/18 07:51:15;;;;;;;23.15;8.48;;;;;;;10.78;75.37;99825.06;4745313;29;20579;-55
2022/02/18 07:53:41;;;;;;;20.13;8.52;;;;;;;10.78;75.58;99812.00;4753849;29;20280;-53
2022/02/18 07:56:06;;;;;;;22.70;8.57;;;;;;;10.78;75.76;99802.44;4749877;29;20047;-55
2022/02/18 07:58:32;;;;;;;24.90;7.95;;;;;;;10.94;75.67;99798.88;4753654;29;20138;-54
2022/02/18 08:00:57;;;;;;;23.92;8.48;;;;;;;10.90;75.78;99785.88;4749181;29;20432;-54
2022/02/18 08:03:22;;;;;;;23.05;8.95;;;;;;;11.05;75.56;99791.00;4746834;29;20047;-51
2022/02/18 08:05:48;;;;;;;21.25;8.90;;;;;;;11.06;75.90;99784.03;4751562;29;20124;-53
2022/02/18 08:08:13;;;;;;;24.80;8.48;;;;;;;11.16;75.39;99770.91;4752416;29;20498;-53
2022/02/18 08:10:39;;;;;;;23.80;9.10;;;;;;;11.16;75.88;99768.31;4750936;29;20166;-54
2022/02/18 08:13:04;;;;;;;29.25;9.05;;;;;;;11.28;75.19;99770.84;4745611;29;20411;-52
2022/02/18 08:15:30;;;;;;;23.08;9.60;;;;;;;11.19;76.04;99759.63;4757640;29;20039;-52
2022/02/18 08:17:55;;;;;;;23.10;9.52;;;;;;;11.21;76.10;99747.44;4755180;29;20059;-55
2022/02/18 08:20:21;;;;;;;20.60;8.95;;;;;;;11.37;75.43;99742.09;4752994;29;20216;-53
2022/02/18 08:22:46;;;;;;;24.85;9.25;;;;;;;11.40;75.56;99739.44;4745131;29;20136;-50
2022/02/18 08:25:11;;;;;;;15.98;7.82;;;;;;;11.37;75.52;99733.38;4749573;29;20065;-51
2022/02/18 08:27:37;;;;;;;22.60;8.25;;;;;;;11.44;75.17;99727.25;4757392;29;20740;-52
2022/02/18 08:30:04;;;;;;;20.23;8.20;;;;;;;11.57;74.76;99720.16;4756565;29;20075;-53
2022/02/18 08:32:30;;;;;;;19.25;8.07;;;;;;;11.60;74.66;99723.59;4753248;29;20417;-51
2022/02/18 08:34:55;;;;;;;18.67;8.25;;;;;;;11.67;74.78;99717.47;4743912;29;20047;-54
2022/02/18 08:37:21;;;;;;;20.55;7.90;;;;;;;11.77;74.22;99703.44;4753642;29;20330;-55
2022/02/18 08:39:46;;;;;;;18.50;8.00;;;;;;;11.75;74.91;99705.22;4757815;29;20051;-52
2022/02/18 08:42:12;;;;;;;21.27;7.70;;;;;;;11.83;73.98;99709.53;4743836;29;20062;-54
2022/02/18 08:44:38;;;;;;;18.10;7.30;;;;;;;11.70;74.63;99686.13;4756853;29;20062;-53
2022/02/18 08:47:04;;;;;;;17.20;7.05;;;;;;;11.83;74.30;99675.56;4749278;29;20235;-54
2022/02/18 08:49:29;;;;;;;17.95;6.43;;;;;;;11.95;73.60;99663.25;4756463;29;20390;-52
2022/02/18 08:51:55;;;;;;;15.85;6.10;;;;;;;11.89;73.98;99665.06;4755123;29;20715;-54
2022/02/18 08:54:20;;;;;;;19.90;6.00;;;;;;;11.88;73.86;99650.25;4753158;29;20555;-53
2022/02/18 08:56:46;;;;;;;13.57;5.50;;;;;;;11.84;74.05;99662.47;4757828;29;20130;-52
2022/02/18 08:59:11;;;;;;;14.63;5.32;;;;;;;11.90;73.91;99635.41;4751473;29;20130;-53
2022/02/18 09:01:37;;;;;;;13.93;5.60;;;;;;;12.09;73.63;99639.53;4754188;29;20386;-52
2022/02/18 09:04:03;;;;;;;12.90;5.25;;;;;;;12.10;73.39;99631.69;4752982;29;20495;-53
2022/02/18 09:06:28;;;;;;;13.93;4.80;;;;;;;12.09;73.55;99624.75;4754234;29;20051;-49
2022/02/18 09:08:53;;;;;;;12.60;4.90;;;;;;;12.14;73.36;99607.25;4749481;29;20071;-51
2022/02/18 09:11:20;;;;;;;14.32;5.05;;;;;;;12.20;73.28;99599.34;4748785;29;20051;-53
2022/02/18 09:13:46;;;;;;;14.48;5.18;;;;;;;12.36;72.71;99602.63;4747290;29;20361;-50
2022/02/18 09:16:11;;;;;;;10.55;4.38;;;;;;;12.38;73.01;99586.91;4742725;29;20066;-48
2022/02/18 09:18:37;;;;;;;10.40;4.28;;;;;;;12.38;72.84;99566.00;4753860;29;20051;-52
2022/02/18 09:21:02;;;;;;;11.27;4.28;;;;;;;12.30;73.29;99573.97;4746765;29;20952;-53
2022/02/18 09:23:28;;;;;;;8.98;3.92;;;;;;;12.56;72.82;99569.19;4754990;29;20483;-54
2022/02/18 09:25:54;;;;;;;8.07;3.78;;;;;;;12.70;72.25;99553.28;4749602;29;20135;-51
2022/02/18 09:28:19;;;;;;;7.05;3.67;;;;;;;12.66;72.11;99543.78;4753468;29;20048;-52
2022/02/18 09:30:47;;;;;;;11.13;3.63;;;;;;;12.69;72.03;99538.47;4752631;29;20402;-52
2022/02/18 09:33:15;;;;;;;7.75;3.30;;;;;;;12.71;72.06;99535.84;4752223;29;20058;-52
2022/02/18 09:35:41;;;;;;;7.07;3.22;;;;;;;12.86;72.00;99517.28;4750914;29;20127;-52
2022/02/18 09:38:08;;;;;;;5.50;2.78;;;;;;;13.01;71.50;99522.25;4757256;29;20502;-53
2022/02/18 09:40:34;;;;;;;5.88;3.00;;;;;;;13.08;70.96;99523.00;4756730;29;20051;-54
2022/02/18 09:43:00;;;;;;;8.40;3.00;;;;;;;13.01;71.26;99510.03;4736317;29;20323;-54
2022/02/18 09:45:26;;;;;;;4.80;2.78;;;;;;;13.14;70.95;99504.59;4753697;29;20322;-55
2022/02/18 09:47:52;;;;;;;6.95;2.80;;;;;;;13.22;70.92;99494.84;4751868;29;20437;-54
2022/02/18 09:50:17;;;;;;;5.57;2.67;;;;;;;13.12;71.34;99496.78;4755158;29;20450;-51
2022/02/18 09:52:43;;;;;;;6.68;2.72;;;;;;;13.15;71.67;99488.88;4749722;29;20537;-53
2022/02/18 09:55:09;;;;;;;5.70;2.65;;;;;;;13.24;71.29;99482.59;4746152;29;20047;-52
2022/02/18 09:57:36;;;;;;;6.93;2.67;;;;;;;13.40;70.76;99466.56;4756127;29;20273;-52
2022/02/18 10:00:07;;;;;;;5.25;2.78;;;;;;;13.44;70.81;99482.19;4753052;29;20039;-51
2022/02/18 10:02:35;;;;;;;6.20;2.60;;;;;;;13.44;70.85;99456.88;4747373;29;20051;-55
2022/02/18 10:05:01;;;;;;;6.10;2.50;;;;;;;13.33;71.56;99453.63;4746275;29;20047;-52
2022/02/18 10:07:26;;;;;;;5.93;2.80;;;;;;;13.36;70.88;99456.16;4752291;29;20732;-54
2022/02/18 10:09:52;;;;;;;5.57;2.90;;;;;;;13.55;71.09;99454.03;4757455;29;20059;-51
2022/02/18 10:12:17;;;;;;;5.15;2.38;;;;;;;13.24;71.71;99441.56;4736333;29;20055;-55
2022/02/18 10:14:53;;;;;;;7.78;2.30;;;;;;;13.51;70.96;99444.53;4752713;29;20055;-53
2022/02/18 10:17:22;;;;;;;4.10;2.65;;;;;;;13.36;71.69;99427.38;4747727;29;20232;-55
2022/02/18 10:19:55;;;;;;;4.45;2.80;;;;;;;13.52;71.24;99433.16;4751194;29;20519;-54
2022/02/18 10:22:28;;;;;;;5.40;2.70;;;;;;;13.24;72.47;99428.50;4751281;29;20047;-55
2022/02/18 10:24:54;;;;;;;7.88;2.70;;;;;;;13.36;72.48;99428.22;4744083;29;20043;-55
2022/02/18 10:27:40;;;;;;;4.97;2.60;;;;;;;13.53;71.82;99432.28;4750234;29;20063;-50
2022/02/18 10:30:06;;;;;;;7.10;3.30;;;;;;;13.34;72.84;99411.72;4745702;29;20285;-54
2022/02/18 10:32:40;;;;;;;6.43;3.00;;;;;;;13.40;72.46;99408.09;4740254;29;20472;-54
2022/02/18 10:35:05;;;;;;;3.75;2.78;;;;;;;13.44;72.45;99383.56;4745894;29;20337;-55
2022/02/18 10:37:35;;;;;;;4.80;3.10;;;;;;;13.40;73.25;99366.22;4762609;29;20039;-53
2022/02/18 10:40:14;;;;;;;5.22;3.10;;;;;;;13.34;73.44;99355.91;4756654;29;20751;-50
2022/02/18 10:42:43;;;;;;;4.38;2.70;;;;;;;13.23;73.69;99371.84;4749538;29;20471;-50
2022/02/18 10:45:32;;;;;;;4.00;2.40;;;;;;;13.42;73.54;99351.31;4747892;29;20059;-53
2022/02/18 10:48:19;;;;;;;4.40;2.53;;;;;;;13.45;73.83;99343.41;4749210;29;20742;-53
2022/02/18 10:51:05;;;;;;;4.72;2.50;;;;;;;13.43;73.85;99333.88;4750683;29;20078;-54
2022/02/18 10:53:43;;;;;;;3.58;2.20;;;;;;;13.50;73.63;99327.59;4743262;29;20060;-50
2022/02/18 10:56:11;;;;;;;3.42;2.42;;;;;;;13.38;74.01;99302.56;4751635;29;21000;-49
2022/02/18 10:58:39;;;;;;;3.60;2.50;;;;;;;13.57;73.62;99322.19;4754634;29;20043;-52
2022/02/18 11:01:08;;;;;;;4.43;2.80;;;;;;;13.60;73.46;99298.53;4751215;29;20059;-52
2022/02/18 11:03:35;;;;;;;3.70;2.25;;;;;;;13.54;73.63;99292.63;4756959;29;20535;-53
2022/02/18 11:06:23;;;;;;;3.20;2.50;;;;;;;13.45;73.97;99296.28;4756587;29;20142;-54
2022/02/18 11:08:51;;;;;;;4.22;2.60;;;;;;;13.46;73.80;99287.56;4749915;29;20051;-58
2022/02/18 11:11:17;;;;;;;5.22;2.50;;;;;;;13.55;73.36;99284.69;4747945;29;20157;-52
2022/02/18 11:13:44;;;;;;;3.58;2.50;;;;;;;13.41;74.06;99289.44;4752282;29;20051;-54
2022/02/18 11:16:13;;;;;;;5.05;2.70;;;;;;;13.45;74.03;99291.06;4763656;29;20084;-56
2022/02/18 11:18:39;;;;;;;3.88;2.58;;;;;;;13.49;74.14;99295.31;4751503;29;20429;-53